Time;durP1;ratioP1;P1;durP2;ratioP2;P2;SDS_P1;SDS_P2;PMS_P1;PMS_P2;Temp;Humidity;BMP_temperature;BMP_pressure;BME280_temperature;BME280_humidity;BME280_pressure;Samples;Min_cycle;Max_cycle;Signal;HPM_P1;HPM_P2
2022/12/06 00:01:27;;;;;;;11.33;7.87;;;5.00;99.90;;;;;;5056296;28;20496;-71
2022/12/06 00:03:55;;;;;;;10.70;9.20;;;5.00;99.90;;;;;;5047040;28;20458;-70
2022/12/06 00:06:24;;;;;;;8.13;7.33;;;5.00;99.90;;;;;;5059664;28;20941;-70
2022/12/06 00:08:50;;;;;;;12.20;9.40;;;5.00;99.90;;;;;;5054457;28;20451;-69
2022/12/06 00:11:27;;;;;;;8.40;7.20;;;5.00;99.90;;;;;;5057503;28;20447;-70
2022/12/06 00:13:58;;;;;;;9.70;7.63;;;5.00;99.90;;;;;;5058139;28;20940;-70
2022/12/06 00:16:24;;;;;;;7.63;6.90;;;5.10;99.90;;;;;;5049865;28;20853;-70
2022/12/06 00:18:50;;;;;;;7.80;6.97;;;5.00;99.90;;;;;;5060438;28;20462;-69
2022/12/06 00:21:17;;;;;;;8.13;6.80;;;5.00;99.90;;;;;;5053692;28;20489;-69
2022/12/06 00:23:49;;;;;;;7.50;6.80;;;5.10;99.90;;;;;;5059142;28;20444;-70
2022/12/06 00:26:15;;;;;;;7.50;6.80;;;5.10;99.90;;;;;;5049617;28;20518;-70
2022/12/06 00:28:41;;;;;;;7.97;6.43;;;5.10;99.90;;;;;;5063825;28;20446;-69
2022/12/06 00:31:10;;;;;;;7.33;6.63;;;5.10;99.90;;;;;;5064739;28;20924;-69
2022/12/06 00:33:37;;;;;;;9.43;8.23;;;5.10;99.90;;;;;;5054751;28;20436;-70
2022/12/06 00:36:09;;;;;;;8.27;7.30;;;5.10;99.90;;;;;;5057836;28;20546;-70
2022/12/06 00:38:35;;;;;;;6.80;6.10;;;5.10;99.90;;;;;;5062736;28;20458;-70
2022/12/06 00:41:12;;;;;;;10.30;6.77;;;5.00;99.90;;;;;;5062843;28;20438;-70
2022/12/06 00:43:38;;;;;;;6.73;6.13;;;5.00;99.90;;;;;;5049095;28;20464;-70
2022/12/06 00:46:05;;;;;;;6.67;6.07;;;5.00;99.90;;;;;;5055304;28;20445;-70
2022/12/06 00:48:31;;;;;;;6.73;6.13;;;5.00;99.90;;;;;;5049497;28;20458;-71
2022/12/06 00:50:56;;;;;;;7.83;7.03;;;4.90;99.90;;;;;;5061822;28;20936;-70
2022/12/06 00:53:22;;;;;;;6.93;5.50;;;4.90;99.90;;;;;;5062384;28;20201;-70
2022/12/06 00:55:48;;;;;;;6.70;6.10;;;4.90;99.90;;;;;;5060808;28;20614;-70
2022/12/06 00:58:14;;;;;;;7.63;5.80;;;4.90;99.90;;;;;;5059713;28;20499;-70
2022/12/06 01:00:40;;;;;;;6.00;5.40;;;4.90;99.90;;;;;;5061525;28;20610;-70
2022/12/06 01:03:06;;;;;;;6.80;5.90;;;5.00;99.90;;;;;;5051142;28;20483;-70
2022/12/06 01:05:32;;;;;;;6.20;5.47;;;5.00;99.90;;;;;;5054345;28;20236;-70
2022/12/06 01:07:57;;;;;;;6.33;5.73;;;5.00;99.90;;;;;;5050707;28;20472;-69
2022/12/06 01:10:23;;;;;;;6.20;5.60;;;5.00;99.90;;;;;;5051308;28;20196;-69
2022/12/06 01:12:49;;;;;;;6.43;5.57;;;4.90;99.90;;;;;;5043734;28;20265;-69
2022/12/06 01:15:15;;;;;;;6.37;5.73;;;4.90;99.90;;;;;;5049381;28;20202;-70
2022/12/06 01:17:40;;;;;;;8.37;6.47;;;4.90;99.90;;;;;;5038790;28;20813;-70
2022/12/06 01:20:07;;;;;;;7.70;7.00;;;4.90;99.90;;;;;;5046093;28;20429;-70
2022/12/06 01:22:32;;;;;;;5.70;5.13;;;4.90;99.90;;;;;;5050941;28;20182;-71
2022/12/06 01:24:58;;;;;;;6.60;6.00;;;4.90;99.90;;;;;;5045730;28;20486;-70
2022/12/06 01:27:23;;;;;;;5.60;5.00;;;4.80;99.90;;;;;;5038566;28;20181;-69
2022/12/06 01:29:49;;;;;;;6.63;5.93;;;4.80;99.90;;;;;;5048578;28;20185;-70
2022/12/06 01:32:14;;;;;;;7.97;5.70;;;4.70;99.90;;;;;;5045297;28;20564;-70
2022/12/06 01:34:40;;;;;;;7.00;5.80;;;4.60;99.90;;;;;;5058651;28;20205;-69
2022/12/06 01:37:06;;;;;;;16.60;11.60;;;4.60;99.90;;;;;;5061812;28;20234;-69
2022/12/06 01:39:31;;;;;;;14.83;10.10;;;4.60;99.90;;;;;;5042451;28;20704;-70
2022/12/06 01:41:57;;;;;;;7.83;6.90;;;4.70;99.90;;;;;;5054356;28;20200;-70
2022/12/06 01:44:43;;;;;;;8.27;7.03;;;4.80;99.90;;;;;;5058688;28;20969;-69
2022/12/06 01:47:26;;;;;;;7.60;6.90;;;4.90;99.90;;;;;;5040183;28;20182;-69
2022/12/06 01:50:01;;;;;;;8.73;7.20;;;4.90;99.90;;;;;;5045758;28;20802;-69
2022/12/06 01:52:36;;;;;;;8.00;6.20;;;4.90;99.90;;;;;;5045466;28;20803;-70
2022/12/06 01:55:04;;;;;;;7.47;6.40;;;5.00;99.90;;;;;;5048146;28;20451;-70
2022/12/06 01:57:30;;;;;;;7.80;6.67;;;5.00;99.90;;;;;;5047255;28;20452;-69
2022/12/06 01:59:56;;;;;;;7.43;6.20;;;4.90;99.90;;;;;;5042563;28;20444;-69
2022/12/06 02:02:21;;;;;;;8.63;6.70;;;4.90;99.90;;;;;;5048532;28;20268;-70
2022/12/06 02:04:49;;;;;;;10.57;7.93;;;4.90;99.90;;;;;;5042939;28;20213;-70
2022/12/06 02:07:15;;;;;;;10.20;8.40;;;4.90;99.90;;;;;;5042475;28;20263;-69
2022/12/06 02:09:41;;;;;;;6.53;5.73;;;4.90;99.90;;;;;;5048396;28;20589;-70
2022/12/06 02:12:13;;;;;;;8.07;7.20;;;4.90;99.90;;;;;;5047819;28;20184;-71
2022/12/06 02:14:41;;;;;;;7.27;6.57;;;4.80;99.90;;;;;;5046914;28;20953;-69
2022/12/06 02:17:33;;;;;;;8.17;7.33;;;4.90;99.90;;;;;;5043959;28;20436;-70
2022/12/06 02:20:20;;;;;;;9.37;7.03;;;4.90;99.90;;;;;;5054478;28;20962;-70
2022/12/06 02:23:23;;;;;;;7.47;6.60;;;4.80;99.90;;;;;;5045463;28;20435;-69
2022/12/06 02:26:00;;;;;;;9.43;8.33;;;4.90;99.90;;;;;;5040824;28;21284;-70
2022/12/06 02:28:48;;;;;;;8.10;7.00;;;4.90;99.90;;;;;;5042760;28;20439;-70
2022/12/06 02:31:27;;;;;;;7.90;6.50;;;4.90;99.90;;;;;;5043651;28;20470;-71
2022/12/06 02:33:59;;;;;;;8.10;7.30;;;4.80;99.90;;;;;;5049194;28;20431;-70
2022/12/06 02:36:49;;;;;;;8.13;7.20;;;4.90;99.90;;;;;;5045879;28;20443;-70
2022/12/06 02:39:38;;;;;;;8.33;7.10;;;5.00;99.90;;;;;;5045408;28;20459;-70
2022/12/06 02:42:14;;;;;;;8.30;6.70;;;4.90;99.90;;;;;;5038829;28;20457;-70
2022/12/06 02:44:46;;;;;;;7.70;6.80;;;4.90;99.90;;;;;;5047202;28;20455;-68
2022/12/06 02:47:14;;;;;;;11.00;7.20;;;4.80;99.90;;;;;;5040059;28;20432;-71
2022/12/06 02:49:45;;;;;;;7.60;6.90;;;4.90;99.90;;;;;;5046046;28;20449;-68
2022/12/06 02:52:12;;;;;;;7.60;6.70;;;4.90;99.90;;;;;;5049155;28;20972;-71
2022/12/06 02:54:39;;;;;;;6.73;6.10;;;4.90;99.90;;;;;;5040112;28;20972;-70
2022/12/06 02:57:04;;;;;;;6.47;5.87;;;4.90;99.90;;;;;;5045470;28;20447;-71
2022/12/06 02:59:30;;;;;;;7.73;6.80;;;4.90;99.90;;;;;;5048313;28;20551;-70
2022/12/06 03:01:59;;;;;;;9.83;6.20;;;4.90;99.90;;;;;;5035944;28;20188;-69
2022/12/06 03:04:45;;;;;;;9.53;6.50;;;4.90;99.90;;;;;;5050647;28;20590;-68
2022/12/06 03:07:13;;;;;;;6.93;6.17;;;4.90;99.90;;;;;;5044399;28;20517;-70
2022/12/06 03:10:00;;;;;;;6.90;6.30;;;5.00;99.90;;;;;;5050014;28;20438;-69
2022/12/06 03:12:38;;;;;;;6.20;5.43;;;4.90;99.90;;;;;;5039176;28;20443;-69
2022/12/06 03:15:45;;;;;;;7.27;6.67;;;4.90;99.90;;;;;;5051200;28;20497;-68
2022/12/06 03:18:20;;;;;;;6.03;5.43;;;4.80;99.90;;;;;;5058003;28;20456;-69
2022/12/06 03:21:00;;;;;;;6.90;6.30;;;4.80;99.90;;;;;;5055377;28;20439;-70
2022/12/06 03:23:31;;;;;;;9.33;6.03;;;4.80;99.90;;;;;;5046071;28;20427;-69
2022/12/06 03:26:00;;;;;;;6.43;5.83;;;4.80;99.90;;;;;;5055691;28;20821;-69
2022/12/06 03:28:28;;;;;;;6.23;5.63;;;4.80;99.90;;;;;;5063400;28;20811;-69
2022/12/06 03:31:02;;;;;;;6.37;5.53;;;4.90;99.90;;;;;;5053372;28;20442;-69
2022/12/06 03:33:31;;;;;;;6.13;5.53;;;4.90;99.90;;;;;;5054628;28;20782;-69
2022/12/06 03:35:57;;;;;;;7.13;6.27;;;4.80;99.90;;;;;;5060827;28;20480;-70
2022/12/06 03:38:43;;;;;;;6.67;5.90;;;4.90;99.90;;;;;;5060702;28;20551;-69
2022/12/06 03:41:10;;;;;;;6.10;5.50;;;4.90;99.90;;;;;;5060874;28;20523;-70
2022/12/06 03:43:35;;;;;;;7.00;5.50;;;4.90;99.90;;;;;;5059939;28;21033;-69
2022/12/06 03:46:11;;;;;;;5.83;5.27;;;4.90;99.90;;;;;;5046501;28;20529;-68
2022/12/06 03:48:39;;;;;;;7.70;5.97;;;5.00;99.90;;;;;;5045544;28;20184;-69
2022/12/06 03:51:09;;;;;;;6.33;5.73;;;5.00;99.90;;;;;;5051562;28;20440;-69
2022/12/06 03:53:43;;;;;;;6.67;6.13;;;5.00;99.90;;;;;;5046539;28;20518;-70
2022/12/06 03:56:08;;;;;;;6.50;5.77;;;5.00;99.90;;;;;;5052095;28;20450;-70
2022/12/06 03:58:34;;;;;;;6.63;6.07;;;4.90;99.90;;;;;;5050513;28;20459;-69
2022/12/06 04:01:03;;;;;;;6.57;5.73;;;4.90;99.90;;;;;;5043095;28;22023;-69
2022/12/06 04:03:29;;;;;;;7.57;6.10;;;4.70;99.90;;;;;;5047096;28;20169;-69
2022/12/06 04:05:55;;;;;;;6.83;6.13;;;4.70;99.90;;;;;;5045684;28;20509;-68
2022/12/06 04:08:20;;;;;;;6.23;5.63;;;4.60;99.90;;;;;;5051811;28;20189;-69
2022/12/06 04:10:46;;;;;;;5.83;5.23;;;4.60;99.90;;;;;;5050703;28;20177;-69
2022/12/06 04:13:11;;;;;;;6.67;6.13;;;4.60;99.90;;;;;;5034790;28;20714;-69
2022/12/06 04:15:38;;;;;;;7.50;6.70;;;4.70;99.90;;;;;;5040549;28;20231;-69
2022/12/06 04:18:12;;;;;;;7.43;6.60;;;4.80;99.90;;;;;;5042519;28;20206;-69
2022/12/06 04:23:30;;;;;;;7.30;6.60;;;4.70;99.90;;;;;;5050775;28;20450;-69
2022/12/06 04:25:56;;;;;;;7.67;6.97;;;4.70;99.90;;;;;;5066514;28;20508;-68
2022/12/06 04:39:20;;;;;;;6.07;5.47;;;4.70;99.90;;;;;;5057714;28;20467;-70
2022/12/06 04:44:30;;;;;;;6.73;5.60;;;4.70;99.90;;;;;;5054957;28;20201;-68
2022/12/06 04:46:55;;;;;;;8.13;5.90;;;4.70;99.90;;;;;;5047504;28;20428;-68
2022/12/06 04:49:21;;;;;;;5.90;5.03;;;4.70;99.90;;;;;;5041965;28;20186;-69
2022/12/06 04:51:47;;;;;;;6.30;5.60;;;4.80;99.90;;;;;;5041167;28;20247;-68
2022/12/06 04:54:12;;;;;;;6.73;6.03;;;4.80;99.90;;;;;;5038477;28;20210;-69
2022/12/06 04:56:38;;;;;;;5.43;4.93;;;4.70;99.90;;;;;;5048465;28;20189;-70
2022/12/06 04:59:03;;;;;;;7.20;6.57;;;4.60;99.90;;;;;;5045377;28;20198;-70
2022/12/06 05:01:29;;;;;;;6.90;5.60;;;4.60;99.90;;;;;;5047686;28;20663;-69
2022/12/06 05:03:54;;;;;;;6.43;5.83;;;4.60;99.90;;;;;;5051149;28;20577;-69
2022/12/06 05:06:20;;;;;;;9.40;7.40;;;4.60;99.90;;;;;;5047054;28;20198;-70
2022/12/06 05:08:45;;;;;;;7.57;6.03;;;4.60;99.90;;;;;;5041813;28;20178;-70
2022/12/06 05:11:11;;;;;;;6.50;5.80;;;4.60;99.90;;;;;;5042798;28;20181;-69
2022/12/06 05:13:36;;;;;;;7.13;6.50;;;4.60;99.90;;;;;;5042408;28;20173;-70
2022/12/06 05:16:04;;;;;;;5.97;5.37;;;4.60;99.90;;;;;;5044753;28;20182;-70
2022/12/06 05:18:30;;;;;;;9.03;6.90;;;4.70;99.90;;;;;;5050901;28;20204;-68
2022/12/06 05:21:15;;;;;;;6.27;5.50;;;4.60;99.90;;;;;;5060945;28;20428;-69
2022/12/06 05:23:41;;;;;;;7.63;6.60;;;4.70;99.90;;;;;;5052458;28;20172;-68
2022/12/06 05:26:11;;;;;;;7.47;6.73;;;4.70;99.90;;;;;;5063904;28;20435;-69
2022/12/06 05:28:36;;;;;;;6.93;5.37;;;4.70;99.90;;;;;;5041172;28;20432;-69
2022/12/06 05:31:02;;;;;;;6.23;5.70;;;4.80;99.90;;;;;;5044828;28;20442;-68
2022/12/06 05:33:28;;;;;;;6.40;5.77;;;4.90;99.90;;;;;;5044518;28;20185;-69
2022/12/06 05:35:54;;;;;;;6.90;5.93;;;5.00;99.90;;;;;;5058775;28;20525;-68
2022/12/06 05:38:20;;;;;;;5.73;5.13;;;5.00;99.90;;;;;;5046820;28;20205;-69
2022/12/06 05:40:46;;;;;;;10.07;7.30;;;5.00;99.90;;;;;;5048199;28;20189;-68
2022/12/06 05:43:12;;;;;;;6.37;5.73;;;5.00;99.90;;;;;;5059546;28;20181;-69
2022/12/06 05:45:38;;;;;;;6.17;5.50;;;5.00;99.90;;;;;;5063983;28;20458;-69
2022/12/06 05:48:04;;;;;;;7.10;6.33;;;5.00;99.90;;;;;;5052516;28;20457;-69
2022/12/06 05:50:30;;;;;;;5.70;5.20;;;4.90;99.90;;;;;;5044544;28;20181;-68
2022/12/06 05:52:57;;;;;;;5.70;5.20;;;4.90;99.90;;;;;;5055973;28;20436;-69
2022/12/06 05:55:24;;;;;;;6.37;5.77;;;4.90;99.90;;;;;;5044580;28;20456;-69
2022/12/06 05:57:50;;;;;;;6.33;5.60;;;4.90;99.90;;;;;;5048008;28;20447;-69
2022/12/06 06:00:17;;;;;;;7.20;6.50;;;4.90;99.90;;;;;;5047758;28;20432;-69
2022/12/06 06:02:42;;;;;;;5.93;5.33;;;5.00;99.90;;;;;;5046383;28;20455;-68
2022/12/06 06:05:08;;;;;;;7.03;6.27;;;4.90;99.90;;;;;;5052896;28;20460;-69
2022/12/06 06:07:36;;;;;;;6.77;6.17;;;4.90;99.90;;;;;;5052957;28;20224;-68
2022/12/06 06:10:03;;;;;;;5.90;5.30;;;4.90;99.90;;;;;;5052795;28;20234;-69
2022/12/06 06:12:29;;;;;;;5.83;5.23;;;4.90;99.90;;;;;;5051640;28;20787;-68
2022/12/06 06:14:54;;;;;;;6.03;5.43;;;4.80;99.90;;;;;;5052701;28;20432;-68
2022/12/06 06:17:20;;;;;;;6.23;5.63;;;4.90;99.90;;;;;;5053189;28;20173;-68
2022/12/06 06:19:45;;;;;;;7.33;6.60;;;5.00;99.90;;;;;;5052351;28;20197;-68
2022/12/06 06:22:11;;;;;;;5.73;5.03;;;5.00;99.90;;;;;;5052739;28;20197;-68
2022/12/06 06:24:41;;;;;;;6.70;5.30;;;5.00;99.90;;;;;;5052707;28;20280;-68
2022/12/06 06:27:07;;;;;;;6.97;5.90;;;5.00;99.90;;;;;;5052526;28;20259;-68
2022/12/06 06:29:32;;;;;;;7.00;6.30;;;5.00;99.90;;;;;;5052216;28;20448;-68
2022/12/06 06:31:58;;;;;;;8.07;6.23;;;5.00;99.90;;;;;;5052529;28;20426;-68
2022/12/06 06:34:24;;;;;;;7.60;5.77;;;4.90;99.90;;;;;;5052496;28;20268;-68
2022/12/06 06:36:50;;;;;;;8.67;6.93;;;4.90;99.90;;;;;;5052546;28;20191;-68
2022/12/06 06:39:17;;;;;;;6.37;5.77;;;5.00;99.90;;;;;;5052083;28;20965;-69
2022/12/06 06:41:43;;;;;;;6.67;5.97;;;5.00;99.90;;;;;;5052382;28;20420;-68
2022/12/06 06:44:09;;;;;;;5.60;5.10;;;5.00;99.90;;;;;;5052307;28;21009;-68
2022/12/06 06:46:35;;;;;;;6.83;6.10;;;4.90;99.90;;;;;;5052407;28;20495;-69
2022/12/06 06:49:01;;;;;;;6.67;6.07;;;4.90;99.90;;;;;;5051896;28;20173;-69
2022/12/06 06:51:26;;;;;;;6.13;5.53;;;4.90;99.90;;;;;;5052148;28;20174;-69
2022/12/06 06:53:52;;;;;;;6.60;6.00;;;5.00;99.90;;;;;;5052006;28;20469;-69
2022/12/06 06:56:19;;;;;;;7.57;6.73;;;5.10;99.90;;;;;;5051994;28;20725;-68
2022/12/06 06:58:44;;;;;;;6.30;5.70;;;5.00;99.90;;;;;;5051707;28;20190;-69
2022/12/06 07:01:16;;;;;;;6.40;5.80;;;5.00;99.90;;;;;;5044320;28;20471;-68
2022/12/06 07:03:42;;;;;;;7.23;6.30;;;4.90;99.90;;;;;;5032038;28;20193;-69
2022/12/06 07:06:09;;;;;;;6.33;5.73;;;5.00;99.90;;;;;;5032148;28;20792;-68
2022/12/06 07:08:34;;;;;;;6.43;5.73;;;4.90;99.90;;;;;;5031994;28;20651;-68
2022/12/06 07:11:00;;;;;;;6.63;6.00;;;5.00;99.90;;;;;;5031971;28;20427;-68
2022/12/06 07:13:27;;;;;;;7.13;5.83;;;5.00;99.90;;;;;;5032021;28;20185;-70
2022/12/06 07:15:53;;;;;;;10.40;7.13;;;4.90;99.90;;;;;;5031931;28;20244;-69
2022/12/06 07:18:19;;;;;;;8.10;5.73;;;5.00;99.90;;;;;;5031607;28;20858;-68
2022/12/06 07:20:46;;;;;;;6.20;5.60;;;4.90;99.90;;;;;;5032048;28;20197;-68
2022/12/06 07:23:12;;;;;;;6.47;5.70;;;5.30;99.90;;;;;;5031979;28;20950;-68
2022/12/06 07:25:38;;;;;;;6.57;5.77;;;5.00;99.90;;;;;;5031910;28;20437;-68
2022/12/06 07:28:04;;;;;;;6.97;6.10;;;5.00;99.90;;;;;;5031920;28;20492;-68
2022/12/06 07:30:30;;;;;;;6.43;5.80;;;5.00;99.90;;;;;;5031616;28;20609;-69
2022/12/06 07:32:56;;;;;;;6.13;5.43;;;5.10;99.90;;;;;;5024238;28;20432;-69
2022/12/06 07:35:22;;;;;;;9.60;6.37;;;5.00;99.90;;;;;;5025364;28;20475;-70
2022/12/06 07:37:47;;;;;;;6.50;5.80;;;5.10;99.90;;;;;;5044578;28;20458;-68
2022/12/06 07:40:14;;;;;;;6.27;5.67;;;5.20;99.90;;;;;;5054900;28;20173;-68
2022/12/06 07:45:24;;;;;;;9.33;6.57;;;5.00;99.90;;;;;;5051232;28;20887;-68
2022/12/06 07:47:50;;;;;;;8.40;6.80;;;5.00;99.90;;;;;;5039022;28;20511;-68
2022/12/06 07:50:19;;;;;;;6.37;5.20;;;5.10;99.90;;;;;;5046412;28;20169;-68
2022/12/06 07:52:47;;;;;;;8.00;6.60;;;5.20;99.90;;;;;;5048098;28;20197;-69
2022/12/06 07:55:13;;;;;;;6.97;6.23;;;5.10;99.90;;;;;;5047481;28;20458;-69
2022/12/06 07:57:38;;;;;;;6.37;5.77;;;5.30;99.90;;;;;;5051434;28;20438;-69
2022/12/06 08:00:07;;;;;;;9.67;7.00;;;5.20;99.90;;;;;;5038042;28;20535;-69
2022/12/06 08:02:33;;;;;;;5.17;4.63;;;5.30;99.90;;;;;;5045854;28;20181;-70
2022/12/06 08:04:58;;;;;;;8.47;6.33;;;5.40;99.90;;;;;;5047328;28;20915;-69
2022/12/06 08:07:24;;;;;;;8.10;6.27;;;5.40;99.90;;;;;;5041037;28;20182;-69
2022/12/06 08:09:52;;;;;;;7.80;7.00;;;5.40;99.90;;;;;;5032406;28;20174;-68
2022/12/06 08:12:18;;;;;;;8.53;7.03;;;5.40;99.90;;;;;;5038197;28;20429;-68
2022/12/06 08:14:44;;;;;;;8.10;6.40;;;5.40;99.90;;;;;;5047537;28;20455;-70
2022/12/06 08:17:09;;;;;;;10.60;6.87;;;5.40;99.90;;;;;;5049274;28;20424;-68
2022/12/06 08:19:35;;;;;;;9.53;6.77;;;5.40;99.90;;;;;;5044908;28;20660;-69
2022/12/06 08:22:01;;;;;;;8.40;6.30;;;5.40;99.90;;;;;;5037225;28;20174;-69
2022/12/06 08:24:26;;;;;;;8.60;7.17;;;5.40;99.90;;;;;;5046661;28;20219;-69
2022/12/06 08:26:52;;;;;;;8.33;7.43;;;5.30;99.90;;;;;;5054900;28;20169;-69
2022/12/06 08:29:18;;;;;;;7.97;7.13;;;5.40;99.90;;;;;;5054123;28;20173;-68
2022/12/06 08:31:45;;;;;;;7.70;7.00;;;5.40;99.90;;;;;;5054563;28;20204;-69
2022/12/06 08:34:12;;;;;;;9.20;7.20;;;5.50;99.90;;;;;;5051406;28;20436;-69
2022/12/06 08:36:39;;;;;;;8.17;7.30;;;5.50;99.90;;;;;;5053539;28;20432;-69
2022/12/06 08:39:05;;;;;;;13.77;9.47;;;5.40;99.90;;;;;;5054259;28;20501;-69
2022/12/06 08:44:17;;;;;;;10.17;7.80;;;5.60;99.90;;;;;;5049211;28;20451;-69
2022/12/06 08:46:42;;;;;;;9.60;7.50;;;5.70;99.90;;;;;;5054409;28;20430;-68
2022/12/06 08:49:09;;;;;;;8.93;6.30;;;5.80;99.90;;;;;;5042295;28;20425;-68
2022/12/06 08:51:35;;;;;;;7.33;6.57;;;5.80;99.90;;;;;;5034466;28;20491;-69
2022/12/06 08:54:01;;;;;;;8.70;7.50;;;5.70;99.90;;;;;;5041145;28;20448;-69
2022/12/06 08:56:27;;;;;;;8.83;7.93;;;5.70;99.90;;;;;;5053917;28;20447;-68
2022/12/06 08:58:54;;;;;;;8.90;7.90;;;5.80;99.90;;;;;;5053980;28;20201;-68
2022/12/06 09:01:30;;;;;;;8.50;7.60;;;5.80;99.90;;;;;;5054157;28;20442;-68
2022/12/06 09:03:58;;;;;;;6.90;5.63;;;5.90;99.90;;;;;;5050507;28;20439;-69
2022/12/06 09:06:24;;;;;;;7.93;7.10;;;5.80;99.90;;;;;;5054200;28;20419;-70
2022/12/06 09:08:49;;;;;;;7.23;6.53;;;5.90;99.90;;;;;;5053168;28;20830;-68
2022/12/06 09:11:17;;;;;;;6.97;6.27;;;5.90;99.90;;;;;;5054047;28;20177;-69
2022/12/06 09:13:42;;;;;;;7.80;6.03;;;6.00;99.90;;;;;;5049934;28;20204;-70
2022/12/06 09:16:14;;;;;;;7.90;6.83;;;6.10;99.90;;;;;;5053516;28;20424;-69
2022/12/06 09:18:40;;;;;;;6.40;5.77;;;6.10;99.90;;;;;;5053631;28;20566;-69
2022/12/06 09:21:08;;;;;;;7.57;6.87;;;6.10;99.90;;;;;;5052743;28;20436;-67
2022/12/06 09:23:34;;;;;;;6.80;6.20;;;6.10;99.90;;;;;;5037008;28;20426;-68
2022/12/06 09:26:00;;;;;;;6.80;6.20;;;6.10;99.90;;;;;;5053374;28;20436;-68
2022/12/06 09:28:27;;;;;;;6.43;5.47;;;6.10;99.90;;;;;;5038953;28;20432;-68
2022/12/06 09:30:53;;;;;;;6.70;6.03;;;6.10;99.90;;;;;;5033623;28;20429;-69
2022/12/06 09:33:18;;;;;;;7.43;6.57;;;6.00;99.90;;;;;;5039429;28;20509;-68
2022/12/06 09:35:44;;;;;;;8.50;7.40;;;6.00;99.90;;;;;;5053663;28;20606;-68
2022/12/06 09:38:09;;;;;;;7.73;6.63;;;6.00;99.90;;;;;;5052668;28;20597;-70
2022/12/06 09:40:54;;;;;;;8.50;7.60;;;6.10;99.90;;;;;;5053073;28;20186;-68
2022/12/06 09:43:38;;;;;;;9.93;7.63;;;6.20;99.90;;;;;;5049194;28;20281;-68
2022/12/06 09:46:41;;;;;;;7.57;6.60;;;6.20;99.90;;;;;;5036389;28;20799;-68
2022/12/06 09:49:25;;;;;;;7.57;6.87;;;6.30;99.90;;;;;;5027464;28;20473;-68
2022/12/06 09:52:18;;;;;;;7.37;6.67;;;6.40;99.90;;;;;;5033009;28;20567;-67
2022/12/06 09:55:14;;;;;;;7.97;7.17;;;6.30;99.90;;;;;;5048979;28;20440;-68
2022/12/06 09:57:46;;;;;;;8.83;7.93;;;6.10;99.90;;;;;;5037970;28;20448;-68
2022/12/06 10:00:16;;;;;;;7.93;7.20;;;5.90;99.90;;;;;;5052768;28;20521;-67
2022/12/06 10:02:51;;;;;;;7.53;5.93;;;6.00;99.90;;;;;;5052823;28;20495;-69
2022/12/06 10:05:28;;;;;;;7.87;7.00;;;6.10;99.90;;;;;;5050824;28;20467;-69
2022/12/06 10:08:08;;;;;;;7.80;7.10;;;6.10;99.90;;;;;;5052903;28;20410;-68
2022/12/06 10:11:14;;;;;;;7.43;6.07;;;6.10;99.90;;;;;;5052014;28;20420;-70
2022/12/06 10:13:45;;;;;;;7.40;6.60;;;6.30;99.90;;;;;;5049529;28;20522;-67
2022/12/06 10:16:22;;;;;;;8.07;7.27;;;6.20;99.90;;;;;;5048662;28;20432;-68
2022/12/06 10:18:48;;;;;;;9.47;8.60;;;6.00;99.90;;;;;;5032599;28;20463;-68
2022/12/06 10:21:40;;;;;;;21.60;9.20;;;6.00;99.90;;;;;;5034119;28;20440;-67
2022/12/06 10:24:32;;;;;;;10.17;8.03;;;6.10;99.90;;;;;;5040602;28;20695;-67
2022/12/06 10:27:31;;;;;;;11.27;9.67;;;6.00;99.90;;;;;;5052046;28;20807;-67
2022/12/06 10:30:10;;;;;;;11.20;9.30;;;6.10;99.90;;;;;;5012731;28;20995;-68
2022/12/06 10:33:12;;;;;;;14.97;10.80;;;6.20;99.90;;;;;;5032473;28;20417;-68
2022/12/06 10:35:42;;;;;;;13.20;10.40;;;6.20;99.90;;;;;;5049817;28;21015;-69
2022/12/06 10:38:14;;;;;;;12.63;11.33;;;6.30;99.90;;;;;;5052167;28;20420;-69
2022/12/06 10:41:00;;;;;;;13.63;11.63;;;6.30;99.90;;;;;;5051249;28;20435;-68
2022/12/06 10:43:40;;;;;;;14.43;11.40;;;6.40;99.90;;;;;;5049262;28;20428;-67
2022/12/06 10:49:11;;;;;;;17.00;12.23;;;6.40;99.90;;;;;;5052372;28;20469;-68
2022/12/06 10:51:43;;;;;;;13.67;11.90;;;6.40;99.90;;;;;;5051801;28;20427;-69
2022/12/06 10:54:25;;;;;;;13.57;11.00;;;6.50;99.90;;;;;;5047527;28;20842;-68
2022/12/06 10:56:53;;;;;;;15.00;11.60;;;6.40;99.90;;;;;;5052125;28;20815;-68
2022/12/06 10:59:30;;;;;;;16.07;12.03;;;6.20;99.90;;;;;;5050908;28;20498;-68
2022/12/06 11:02:00;;;;;;;13.70;10.77;;;6.20;99.90;;;;;;5052013;28;20427;-68
2022/12/06 11:04:34;;;;;;;16.47;13.60;;;6.20;99.90;;;;;;5044827;28;20934;-70
2022/12/06 11:07:16;;;;;;;17.90;13.43;;;6.30;99.90;;;;;;5044616;28;20423;-68
2022/12/06 11:09:45;;;;;;;15.90;11.63;;;6.40;99.90;;;;;;5051624;28;20423;-68
2022/12/06 11:12:33;;;;;;;14.90;12.37;;;6.30;99.90;;;;;;5045248;28;20445;-68
2022/12/06 11:15:21;;;;;;;16.37;12.30;;;6.40;99.90;;;;;;5048225;28;20526;-68
2022/12/06 11:17:52;;;;;;;16.00;12.97;;;6.30;99.90;;;;;;5031595;28;20433;-68
2022/12/06 11:20:32;;;;;;;15.57;12.33;;;6.30;99.90;;;;;;5031712;28;20439;-67
2022/12/06 11:23:22;;;;;;;16.07;12.90;;;6.30;99.90;;;;;;5040360;28;20469;-68
2022/12/06 11:26:05;;;;;;;23.27;14.00;;;6.10;99.90;;;;;;5049485;28;20440;-68
2022/12/06 11:28:36;;;;;;;24.97;17.07;;;6.00;99.90;;;;;;5051002;28;20510;-67
2022/12/06 11:31:12;;;;;;;16.20;13.53;;;6.10;99.90;;;;;;5031847;28;20424;-72
2022/12/06 11:33:38;;;;;;;19.90;14.20;;;6.10;99.90;;;;;;5036202;28;20790;-68
2022/12/06 11:36:06;;;;;;;15.33;12.23;;;6.30;99.90;;;;;;5033918;28;20424;-68
2022/12/06 11:38:33;;;;;;;15.17;11.67;;;6.30;99.90;;;;;;5031376;28;20452;-68
2022/12/06 11:41:00;;;;;;;15.50;13.83;;;6.40;99.90;;;;;;5040582;28;20808;-68
2022/12/06 11:43:33;;;;;;;13.87;12.37;;;6.40;99.90;;;;;;5043663;28;20427;-67
2022/12/06 11:45:59;;;;;;;16.67;11.80;;;6.30;99.90;;;;;;5051001;28;20432;-68
2022/12/06 11:48:29;;;;;;;15.60;12.40;;;6.30;99.90;;;;;;5044889;28;20515;-68
2022/12/06 11:50:55;;;;;;;15.67;13.23;;;6.30;99.90;;;;;;5052715;28;20449;-68
2022/12/06 11:53:26;;;;;;;14.83;12.13;;;6.20;99.90;;;;;;5051979;28;20467;-67
2022/12/06 11:55:55;;;;;;;14.47;11.43;;;6.10;99.90;;;;;;5052580;28;20290;-67
2022/12/06 11:58:29;;;;;;;15.37;12.87;;;6.00;99.90;;;;;;5055054;28;20455;-68
2022/12/06 12:01:01;;;;;;;16.00;12.80;;;6.10;99.90;;;;;;5046244;28;21005;-69
2022/12/06 12:03:32;;;;;;;18.67;13.37;;;6.10;99.90;;;;;;5038678;28;20404;-70
2022/12/06 12:06:26;;;;;;;14.57;12.50;;;6.20;99.90;;;;;;5054026;28;20472;-69
2022/12/06 12:09:00;;;;;;;17.13;12.33;;;6.20;99.90;;;;;;5037135;28;20439;-70
2022/12/06 12:11:29;;;;;;;15.80;12.27;;;6.20;99.90;;;;;;5043903;28;20419;-68
2022/12/06 12:14:02;;;;;;;16.77;12.30;;;6.20;99.90;;;;;;5041713;28;20416;-70
2022/12/06 12:16:35;;;;;;;15.87;12.73;;;5.90;99.90;;;;;;5054582;28;20434;-69
2022/12/06 12:19:24;;;;;;;14.20;10.97;;;6.00;99.90;;;;;;5054421;28;20451;-69
2022/12/06 12:21:49;;;;;;;15.00;11.20;;;6.00;99.90;;;;;;5054925;28;20759;-70
2022/12/06 12:24:39;;;;;;;15.00;11.20;;;5.90;99.90;;;;;;5047584;28;20439;-69
2022/12/06 12:27:29;;;;;;;19.50;10.13;;;6.10;99.90;;;;;;5051207;28;20200;-68
2022/12/06 12:30:26;;;;;;;13.80;10.23;;;5.90;99.90;;;;;;5054013;28;20972;-69
2022/12/06 12:33:08;;;;;;;12.90;9.40;;;5.90;99.90;;;;;;5031328;28;21031;-67
2022/12/06 12:35:37;;;;;;;11.57;8.80;;;5.90;99.90;;;;;;5046772;28;20451;-70
2022/12/06 12:38:17;;;;;;;14.50;8.80;;;5.80;99.90;;;;;;5034038;28;20512;-69
2022/12/06 12:40:47;;;;;;;10.33;7.57;;;5.60;99.90;;;;;;5034691;28;20417;-69
2022/12/06 12:43:18;;;;;;;11.07;8.03;;;5.60;99.90;;;;;;5044506;28;20424;-68
2022/12/06 12:46:02;;;;;;;9.97;8.97;;;5.50;99.90;;;;;;5053798;28;20451;-69
2022/12/06 12:48:28;;;;;;;9.60;7.70;;;5.50;99.90;;;;;;5052166;28;20412;-68
2022/12/06 12:51:03;;;;;;;10.10;7.40;;;5.60;99.90;;;;;;5037712;28;20988;-70
2022/12/06 12:53:41;;;;;;;8.80;7.20;;;5.60;99.90;;;;;;5037969;28;20180;-68
2022/12/06 12:56:15;;;;;;;7.57;6.23;;;5.40;99.90;;;;;;5051232;28;20493;-69
2022/12/06 12:58:43;;;;;;;7.00;5.43;;;5.50;99.90;;;;;;5052986;28;20483;-70
2022/12/06 13:01:37;;;;;;;6.37;5.33;;;5.40;99.90;;;;;;5053219;28;20420;-68
2022/12/06 13:04:09;;;;;;;8.13;5.97;;;5.50;99.90;;;;;;5050515;28;20436;-68
2022/12/06 13:06:39;;;;;;;6.80;5.53;;;5.50;99.90;;;;;;5053884;28;20540;-70
2022/12/06 13:09:06;;;;;;;7.70;5.70;;;5.50;99.90;;;;;;5038180;28;20512;-69
2022/12/06 13:11:40;;;;;;;6.93;6.23;;;5.50;99.90;;;;;;5032954;28;20425;-69
2022/12/06 13:14:11;;;;;;;10.33;6.80;;;5.40;99.90;;;;;;5040241;28;20450;-69
2022/12/06 13:16:37;;;;;;;9.90;6.13;;;5.50;99.90;;;;;;5034175;28;20421;-69
2022/12/06 13:19:02;;;;;;;6.40;4.87;;;5.30;99.90;;;;;;5033740;28;20453;-70
2022/12/06 13:21:33;;;;;;;6.50;5.70;;;5.40;99.90;;;;;;5042650;28;20205;-70
2022/12/06 13:24:11;;;;;;;5.80;4.87;;;5.30;99.90;;;;;;5041411;28;20197;-69
2022/12/06 13:26:54;;;;;;;8.23;5.20;;;5.30;99.90;;;;;;5053787;28;20420;-69
2022/12/06 13:29:44;;;;;;;6.13;5.13;;;5.20;99.90;;;;;;5040641;28;20474;-69
2022/12/06 13:32:25;;;;;;;6.13;5.47;;;5.30;99.90;;;;;;5033803;28;20413;-70
2022/12/06 13:34:59;;;;;;;4.57;3.70;;;5.20;99.90;;;;;;5047171;28;20447;-69
2022/12/06 13:37:41;;;;;;;5.37;4.80;;;5.20;99.90;;;;;;5053587;28;20416;-68